sensor_id;sensor_type;location;lat;lon;timestamp;temperature;humidity
25050;DHT22;13046;49.814;9.918;2023-11-18T03:30:39;3.00;99.90
25050;DHT22;13046;49.814;9.918;2023-11-18T03:33:07;1.90;99.90
25050;DHT22;13046;49.814;9.918;2023-11-18T03:35:36;2.00;99.90
25050;DHT22;13046;49.814;9.918;2023-11-18T03:38:04;2.00;99.90
25050;DHT22;13046;49.814;9.918;2023-11-18T03:40:29;2.00;99.90
25050;DHT22;13046;49.814;9.918;2023-11-18T03:42:55;2.10;99.90
25050;DHT22;13046;49.814;9.918;2023-11-18T03:45:24;2.10;99.90
25050;DHT22;13046;49.814;9.918;2023-11-18T03:47:49;2.20;99.90
25050;DHT22;13046;49.814;9.918;2023-11-18T03:50:16;2.30;99.90
25050;DHT22;13046;49.814;9.918;2023-11-18T03:52:42;2.20;99.90
25050;DHT22;13046;49.814;9.918;2023-11-18T03:55:08;2.20;99.90
25050;DHT22;13046;49.814;9.918;2023-11-18T03:57:34;2.10;99.90
25050;DHT22;13046;49.814;9.918;2023-11-18T04:00:00;2.00;99.90
25050;DHT22;13046;49.814;9.918;2023-11-18T04:02:25;2.00;99.90
25050;DHT22;13046;49.814;9.918;2023-11-18T04:04:51;2.00;99.90
25050;DHT22;13046;49.814;9.918;2023-11-18T04:07:17;1.90;99.90
25050;DHT22;13046;49.814;9.918;2023-11-18T04:09:43;1.90;99.90
25050;DHT22;13046;49.814;9.918;2023-11-18T04:12:09;1.80;99.90
25050;DHT22;13046;49.814;9.918;2023-11-18T04:24:20;1.70;99.90
25050;DHT22;13046;49.814;9.918;2023-11-18T04:26:46;1.70;99.90
25050;DHT22;13046;49.814;9.918;2023-11-18T04:29:13;1.70;99.90
25050;DHT22;13046;49.814;9.918;2023-11-18T04:31:41;1.60;99.90
25050;DHT22;13046;49.814;9.918;2023-11-18T04:34:07;1.60;99.90
25050;DHT22;13046;49.814;9.918;2023-11-18T04:36:33;1.70;99.90
25050;DHT22;13046;49.814;9.918;2023-11-18T04:38:59;1.70;99.90
25050;DHT22;13046;49.814;9.918;2023-11-18T04:41:25;1.70;99.90
25050;DHT22;13046;49.814;9.918;2023-11-18T05:25:35;1.70;99.90
25050;DHT22;13046;49.814;9.918;2023-11-18T05:28:01;1.50;99.90
25050;DHT22;13046;49.814;9.918;2023-11-18T05:30:26;1.50;99.90
25050;DHT22;13046;49.814;9.918;2023-11-18T05:32:52;1.60;99.90
25050;DHT22;13046;49.814;9.918;2023-11-18T05:35:17;1.60;99.90
25050;DHT22;13046;49.814;9.918;2023-11-18T06:58:53;1.70;99.90
25050;DHT22;13046;49.814;9.918;2023-11-18T07:01:19;1.60;99.90
25050;DHT22;13046;49.814;9.918;2023-11-18T07:03:47;1.60;99.90
25050;DHT22;13046;49.814;9.918;2023-11-18T09:31:49;1.70;99.90
25050;DHT22;13046;49.814;9.918;2023-11-18T09:34:18;4.30;99.90
25050;DHT22;13046;49.814;9.918;2023-11-18T09:36:49;4.30;99.90
25050;DHT22;13046;49.814;9.918;2023-11-18T09:41:49;4.40;99.90
25050;DHT22;13046;49.814;9.918;2023-11-18T09:44:17;4.60;99.90
25050;DHT22;13046;49.814;9.918;2023-11-18T09:46:46;4.70;99.90
25050;DHT22;13046;49.814;9.918;2023-11-18T09:49:27;4.70;99.90
25050;DHT22;13046;49.814;9.918;2023-11-18T09:51:59;4.70;99.90
25050;DHT22;13046;49.814;9.918;2023-11-18T09:55:03;4.80;99.90
25050;DHT22;13046;49.814;9.918;2023-11-18T09:57:43;4.70;99.90
25050;DHT22;13046;49.814;9.918;2023-11-18T10:00:15;4.70;99.90
25050;DHT22;13046;49.814;9.918;2023-11-18T10:02:58;4.60;99.90
25050;DHT22;13046;49.814;9.918;2023-11-18T10:05:26;4.60;99.90
25050;DHT22;13046;49.814;9.918;2023-11-18T10:07:53;4.50;99.90
25050;DHT22;13046;49.814;9.918;2023-11-18T10:10:19;4.60;99.90
25050;DHT22;13046;49.814;9.918;2023-11-18T10:12:52;4.70;99.90
25050;DHT22;13046;49.814;9.918;2023-11-18T10:15:20;4.80;99.90
25050;DHT22;13046;49.814;9.918;2023-11-18T10:17:49;4.90;99.90
25050;DHT22;13046;49.814;9.918;2023-11-18T10:23:10;5.10;99.90
25050;DHT22;13046;49.814;9.918;2023-11-18T10:25:52;5.10;99.90
25050;DHT22;13046;49.814;9.918;2023-11-18T10:30:50;5.10;99.90
25050;DHT22;13046;49.814;9.918;2023-11-18T10:33:17;5.10;99.90
25050;DHT22;13046;49.814;9.918;2023-11-18T10:35:52;5.20;99.90
25050;DHT22;13046;49.814;9.918;2023-11-18T10:38:21;5.20;99.90
25050;DHT22;13046;49.814;9.918;2023-11-18T10:40:53;5.20;99.90
25050;DHT22;13046;49.814;9.918;2023-11-18T10:43:21;5.10;99.90
25050;DHT22;13046;49.814;9.918;2023-11-18T10:46:12;5.10;99.90
25050;DHT22;13046;49.814;9.918;2023-11-18T10:48:41;5.10;99.90
25050;DHT22;13046;49.814;9.918;2023-11-18T10:51:11;5.20;99.90
25050;DHT22;13046;49.814;9.918;2023-11-18T10:53:47;5.20;99.90
25050;DHT22;13046;49.814;9.918;2023-11-18T10:56:22;5.30;99.90
25050;DHT22;13046;49.814;9.918;2023-11-18T10:59:00;5.30;99.90
25050;DHT22;13046;49.814;9.918;2023-11-18T11:01:32;5.30;99.90
25050;DHT22;13046;49.814;9.918;2023-11-18T11:03:58;5.40;99.90
25050;DHT22;13046;49.814;9.918;2023-11-18T11:06:25;5.40;99.90
25050;DHT22;13046;49.814;9.918;2023-11-18T11:08:52;5.40;99.90
25050;DHT22;13046;49.814;9.918;2023-11-18T11:11:22;5.50;99.90
25050;DHT22;13046;49.814;9.918;2023-11-18T11:13:49;5.60;99.90
25050;DHT22;13046;49.814;9.918;2023-11-18T11:16:19;5.70;99.90
25050;DHT22;13046;49.814;9.918;2023-11-18T11:18:48;5.80;99.90
25050;DHT22;13046;49.814;9.918;2023-11-18T11:21:21;5.90;99.90
25050;DHT22;13046;49.814;9.918;2023-11-18T11:24:01;6.00;99.90
25050;DHT22;13046;49.814;9.918;2023-11-18T11:27:02;6.10;99.90
25050;DHT22;13046;49.814;9.918;2023-11-18T11:29:52;6.30;99.90
25050;DHT22;13046;49.814;9.918;2023-11-18T11:32:35;6.20;99.90
25050;DHT22;13046;49.814;9.918;2023-11-18T11:35:07;6.30;99.90
25050;DHT22;13046;49.814;9.918;2023-11-18T11:37:43;6.40;99.90
25050;DHT22;13046;49.814;9.918;2023-11-18T11:40:12;6.40;99.90
25050;DHT22;13046;49.814;9.918;2023-11-18T11:42:46;6.60;99.90
25050;DHT22;13046;49.814;9.918;2023-11-18T11:45:13;6.60;99.90
25050;DHT22;13046;49.814;9.918;2023-11-18T11:47:50;6.60;99.90
25050;DHT22;13046;49.814;9.918;2023-11-18T11:50:25;6.80;99.90
25050;DHT22;13046;49.814;9.918;2023-11-18T11:53:09;6.80;99.90
25050;DHT22;13046;49.814;9.918;2023-11-18T11:55:53;6.90;99.90
25050;DHT22;13046;49.814;9.918;2023-11-18T11:58:29;7.00;99.90
25050;DHT22;13046;49.814;9.918;2023-11-18T12:01:01;7.00;99.90
25050;DHT22;13046;49.814;9.918;2023-11-18T12:03:38;7.10;99.90
25050;DHT22;13046;49.814;9.918;2023-11-18T12:06:04;7.20;99.90
25050;DHT22;13046;49.814;9.918;2023-11-18T12:08:36;7.10;99.90
25050;DHT22;13046;49.814;9.918;2023-11-18T12:11:05;7.10;99.90
25050;DHT22;13046;49.814;9.918;2023-11-18T12:13:35;7.10;99.90
25050;DHT22;13046;49.814;9.918;2023-11-18T12:16:05;7.20;99.90
25050;DHT22;13046;49.814;9.918;2023-11-18T12:18:31;7.30;99.90
25050;DHT22;13046;49.814;9.918;2023-11-18T12:20:59;7.40;99.90
25050;DHT22;13046;49.814;9.918;2023-11-18T12:23:28;7.40;99.90
25050;DHT22;13046;49.814;9.918;2023-11-18T12:25:56;7.40;99.90
25050;DHT22;13046;49.814;9.918;2023-11-18T12:30:57;7.40;99.90
25050;DHT22;13046;49.814;9.918;2023-11-18T12:34:00;7.40;99.90
25050;DHT22;13046;49.814;9.918;2023-11-18T12:42:05;7.20;99.90
25050;DHT22;13046;49.814;9.918;2023-11-18T12:44:49;7.30;99.90
25050;DHT22;13046;49.814;9.918;2023-11-18T12:47:23;7.30;99.90
25050;DHT22;13046;49.814;9.918;2023-11-18T12:49:53;7.40;99.90
25050;DHT22;13046;49.814;9.918;2023-11-18T12:52:22;7.40;99.90
25050;DHT22;13046;49.814;9.918;2023-11-18T12:54:49;7.40;99.90
25050;DHT22;13046;49.814;9.918;2023-11-18T12:57:26;7.30;99.90
25050;DHT22;13046;49.814;9.918;2023-11-18T12:59:52;7.30;99.90
25050;DHT22;13046;49.814;9.918;2023-11-18T13:02:18;7.20;99.90
25050;DHT22;13046;49.814;9.918;2023-11-18T13:04:48;7.10;99.90
25050;DHT22;13046;49.814;9.918;2023-11-18T13:07:16;7.10;99.90
25050;DHT22;13046;49.814;9.918;2023-11-18T13:09:43;7.10;99.90
25050;DHT22;13046;49.814;9.918;2023-11-18T13:12:11;7.10;99.90
25050;DHT22;13046;49.814;9.918;2023-11-18T13:14:42;7.10;99.90
25050;DHT22;13046;49.814;9.918;2023-11-18T13:17:15;7.10;99.90
25050;DHT22;13046;49.814;9.918;2023-11-18T13:19:44;7.10;99.90
25050;DHT22;13046;49.814;9.918;2023-11-18T13:22:12;7.10;99.90
25050;DHT22;13046;49.814;9.918;2023-11-18T13:24:42;7.10;99.90
25050;DHT22;13046;49.814;9.918;2023-11-18T13:27:14;7.10;99.90
25050;DHT22;13046;49.814;9.918;2023-11-18T13:29:45;7.00;99.90
25050;DHT22;13046;49.814;9.918;2023-11-18T13:32:15;7.00;99.90
25050;DHT22;13046;49.814;9.918;2023-11-18T13:34:41;7.00;99.90
25050;DHT22;13046;49.814;9.918;2023-11-18T13:37:08;7.00;99.90
25050;DHT22;13046;49.814;9.918;2023-11-18T13:39:34;7.00;99.90
25050;DHT22;13046;49.814;9.918;2023-11-18T13:42:23;6.90;99.90
25050;DHT22;13046;49.814;9.918;2023-11-18T13:44:49;6.90;99.90
25050;DHT22;13046;49.814;9.918;2023-11-18T13:47:19;6.90;99.90
25050;DHT22;13046;49.814;9.918;2023-11-18T13:49:45;6.90;99.90
25050;DHT22;13046;49.814;9.918;2023-11-18T13:52:15;6.90;99.90
25050;DHT22;13046;49.814;9.918;2023-11-18T13:54:44;6.90;99.90
25050;DHT22;13046;49.814;9.918;2023-11-18T13:57:11;6.90;99.90
25050;DHT22;13046;49.814;9.918;2023-11-18T13:59:40;7.00;99.90
25050;DHT22;13046;49.814;9.918;2023-11-18T14:02:09;6.90;99.90
25050;DHT22;13046;49.814;9.918;2023-11-18T14:04:35;6.90;99.90
25050;DHT22;13046;49.814;9.918;2023-11-18T14:07:03;6.90;99.90
25050;DHT22;13046;49.814;9.918;2023-11-18T14:09:31;6.90;99.90
25050;DHT22;13046;49.814;9.918;2023-11-18T14:12:02;6.90;99.90
25050;DHT22;13046;49.814;9.918;2023-11-18T14:14:27;6.80;99.90
25050;DHT22;13046;49.814;9.918;2023-11-18T14:16:54;6.80;99.90
25050;DHT22;13046;49.814;9.918;2023-11-18T14:19:30;6.80;99.90
25050;DHT22;13046;49.814;9.918;2023-11-18T14:21:55;6.80;99.90
25050;DHT22;13046;49.814;9.918;2023-11-18T14:24:21;6.70;99.90
25050;DHT22;13046;49.814;9.918;2023-11-18T14:26:56;6.70;99.90
25050;DHT22;13046;49.814;9.918;2023-11-18T14:29:22;6.70;99.90
25050;DHT22;13046;49.814;9.918;2023-11-18T14:31:48;6.70;99.90
25050;DHT22;13046;49.814;9.918;2023-11-18T14:34:14;6.80;99.90
25050;DHT22;13046;49.814;9.918;2023-11-18T14:36:41;6.80;99.90
25050;DHT22;13046;49.814;9.918;2023-11-18T14:39:08;6.80;99.90
25050;DHT22;13046;49.814;9.918;2023-11-18T14:41:36;6.80;99.90
25050;DHT22;13046;49.814;9.918;2023-11-18T14:44:02;6.80;99.90
25050;DHT22;13046;49.814;9.918;2023-11-18T14:46:30;6.70;99.90
25050;DHT22;13046;49.814;9.918;2023-11-18T14:48:57;6.70;99.90
25050;DHT22;13046;49.814;9.918;2023-11-18T14:51:25;6.70;99.90
25050;DHT22;13046;49.814;9.918;2023-11-18T14:53:51;6.70;99.90
25050;DHT22;13046;49.814;9.918;2023-11-18T14:56:17;6.70;99.90
25050;DHT22;13046;49.814;9.918;2023-11-18T14:58:43;6.60;99.90
25050;DHT22;13046;49.814;9.918;2023-11-18T15:01:14;6.60;99.90
25050;DHT22;13046;49.814;9.918;2023-11-18T15:03:40;6.60;99.90
25050;DHT22;13046;49.814;9.918;2023-11-18T15:06:06;6.60;99.90
25050;DHT22;13046;49.814;9.918;2023-11-18T15:08:32;6.60;99.90
25050;DHT22;13046;49.814;9.918;2023-11-18T15:10:58;6.60;99.90
25050;DHT22;13046;49.814;9.918;2023-11-18T15:13:24;6.70;99.90
25050;DHT22;13046;49.814;9.918;2023-11-18T15:15:50;6.60;99.90
25050;DHT22;13046;49.814;9.918;2023-11-18T15:18:16;6.70;99.90
25050;DHT22;13046;49.814;9.918;2023-11-18T15:20:46;6.70;99.90
25050;DHT22;13046;49.814;9.918;2023-11-18T15:23:12;6.70;99.90
25050;DHT22;13046;49.814;9.918;2023-11-18T15:25:39;6.70;99.90
25050;DHT22;13046;49.814;9.918;2023-11-18T15:28:05;6.70;99.90
25050;DHT22;13046;49.814;9.918;2023-11-18T15:30:38;6.70;99.90
25050;DHT22;13046;49.814;9.918;2023-11-18T15:33:05;6.70;99.90
25050;DHT22;13046;49.814;9.918;2023-11-18T15:35:34;6.60;99.90
25050;DHT22;13046;49.814;9.918;2023-11-18T15:38:04;6.60;99.90
25050;DHT22;13046;49.814;9.918;2023-11-18T15:40:35;6.60;99.90
25050;DHT22;13046;49.814;9.918;2023-11-18T15:43:02;6.60;99.90
25050;DHT22;13046;49.814;9.918;2023-11-18T15:45:31;6.60;99.90
25050;DHT22;13046;49.814;9.918;2023-11-18T15:48:00;6.60;99.90
25050;DHT22;13046;49.814;9.918;2023-11-18T15:50:26;6.50;99.90
25050;DHT22;13046;49.814;9.918;2023-11-18T15:52:54;6.50;99.90
25050;DHT22;13046;49.814;9.918;2023-11-18T15:55:21;6.50;99.90
25050;DHT22;13046;49.814;9.918;2023-11-18T15:57:48;6.50;99.90
25050;DHT22;13046;49.814;9.918;2023-11-18T16:00:21;6.50;99.90
25050;DHT22;13046;49.814;9.918;2023-11-18T16:02:48;6.50;99.90
25050;DHT22;13046;49.814;9.918;2023-11-18T16:05:16;6.50;99.90
25050;DHT22;13046;49.814;9.918;2023-11-18T16:07:49;6.50;99.90
25050;DHT22;13046;49.814;9.918;2023-11-18T16:10:23;6.50;99.90
25050;DHT22;13046;49.814;9.918;2023-11-18T16:12:52;6.50;99.90
25050;DHT22;13046;49.814;9.918;2023-11-18T16:15:28;6.50;99.90
25050;DHT22;13046;49.814;9.918;2023-11-18T16:17:55;6.40;99.90
25050;DHT22;13046;49.814;9.918;2023-11-18T16:20:24;6.40;99.90
25050;DHT22;13046;49.814;9.918;2023-11-18T16:22:52;6.40;99.90
25050;DHT22;13046;49.814;9.918;2023-11-18T16:27:50;6.40;99.90
25050;DHT22;13046;49.814;9.918;2023-11-18T16:30:18;6.40;99.90
25050;DHT22;13046;49.814;9.918;2023-11-18T16:32:44;6.40;99.90
25050;DHT22;13046;49.814;9.918;2023-11-18T16:35:13;6.40;99.90
25050;DHT22;13046;49.814;9.918;2023-11-18T16:37:39;6.30;99.90
25050;DHT22;13046;49.814;9.918;2023-11-18T16:40:07;6.30;99.90
25050;DHT22;13046;49.814;9.918;2023-11-18T16:42:36;6.40;99.90
25050;DHT22;13046;49.814;9.918;2023-11-18T16:45:02;6.40;99.90
25050;DHT22;13046;49.814;9.918;2023-11-18T16:47:28;6.40;99.90
25050;DHT22;13046;49.814;9.918;2023-11-18T16:49:54;6.50;99.90
25050;DHT22;13046;49.814;9.918;2023-11-18T16:52:19;6.50;99.90
25050;DHT22;13046;49.814;9.918;2023-11-18T16:54:46;6.50;99.90
25050;DHT22;13046;49.814;9.918;2023-11-18T16:57:11;6.50;99.90
25050;DHT22;13046;49.814;9.918;2023-11-18T16:59:38;6.60;99.90
25050;DHT22;13046;49.814;9.918;2023-11-18T17:02:03;6.60;99.90
25050;DHT22;13046;49.814;9.918;2023-11-18T17:04:31;6.60;99.90
25050;DHT22;13046;49.814;9.918;2023-11-18T17:06:58;6.60;99.90
25050;DHT22;13046;49.814;9.918;2023-11-18T17:09:23;6.60;99.90
25050;DHT22;13046;49.814;9.918;2023-11-18T17:11:50;6.60;99.90
25050;DHT22;13046;49.814;9.918;2023-11-18T17:14:16;6.60;99.90
25050;DHT22;13046;49.814;9.918;2023-11-18T17:16:42;6.60;99.90
25050;DHT22;13046;49.814;9.918;2023-11-18T17:19:11;6.60;99.90
25050;DHT22;13046;49.814;9.918;2023-11-18T17:21:37;6.60;99.90
25050;DHT22;13046;49.814;9.918;2023-11-18T17:24:04;6.70;99.90
25050;DHT22;13046;49.814;9.918;2023-11-18T17:26:34;6.60;99.90
25050;DHT22;13046;49.814;9.918;2023-11-18T17:29:07;6.60;99.90
25050;DHT22;13046;49.814;9.918;2023-11-18T17:31:36;6.70;99.90
25050;DHT22;13046;49.814;9.918;2023-11-18T17:34:06;6.70;99.90
25050;DHT22;13046;49.814;9.918;2023-11-18T17:36:35;6.70;99.90
25050;DHT22;13046;49.814;9.918;2023-11-18T17:39:01;6.70;99.90
25050;DHT22;13046;49.814;9.918;2023-11-18T17:41:28;6.70;99.90
25050;DHT22;13046;49.814;9.918;2023-11-18T17:43:56;6.70;99.90
25050;DHT22;13046;49.814;9.918;2023-11-18T17:46:22;6.80;99.90
25050;DHT22;13046;49.814;9.918;2023-11-18T17:48:47;6.70;99.90
25050;DHT22;13046;49.814;9.918;2023-11-18T17:51:13;6.70;99.90
25050;DHT22;13046;49.814;9.918;2023-11-18T17:53:40;6.70;99.90
25050;DHT22;13046;49.814;9.918;2023-11-18T17:56:06;6.70;99.90
25050;DHT22;13046;49.814;9.918;2023-11-18T17:58:32;6.70;99.90
25050;DHT22;13046;49.814;9.918;2023-11-18T18:00:58;6.70;99.90
25050;DHT22;13046;49.814;9.918;2023-11-18T18:03:27;6.80;99.90
25050;DHT22;13046;49.814;9.918;2023-11-18T18:05:52;6.80;99.90
25050;DHT22;13046;49.814;9.918;2023-11-18T18:08:20;6.70;99.90
25050;DHT22;13046;49.814;9.918;2023-11-18T18:10:46;6.70;99.90
25050;DHT22;13046;49.814;9.918;2023-11-18T18:13:12;6.70;99.90
25050;DHT22;13046;49.814;9.918;2023-11-18T18:15:38;6.60;99.90
25050;DHT22;13046;49.814;9.918;2023-11-18T18:18:04;6.60;99.90
25050;DHT22;13046;49.814;9.918;2023-11-18T18:20:30;6.60;99.90
25050;DHT22;13046;49.814;9.918;2023-11-18T18:22:56;6.60;99.90
25050;DHT22;13046;49.814;9.918;2023-11-18T18:25:22;6.60;99.90
25050;DHT22;13046;49.814;9.918;2023-11-18T18:27:48;6.60;99.90
25050;DHT22;13046;49.814;9.918;2023-11-18T18:30:15;6.60;99.90
25050;DHT22;13046;49.814;9.918;2023-11-18T18:32:42;6.60;99.90
25050;DHT22;13046;49.814;9.918;2023-11-18T18:35:08;6.60;99.90
25050;DHT22;13046;49.814;9.918;2023-11-18T18:37:33;6.60;99.90
25050;DHT22;13046;49.814;9.918;2023-11-18T18:39:59;6.60;99.90
25050;DHT22;13046;49.814;9.918;2023-11-18T18:42:26;6.60;99.90
25050;DHT22;13046;49.814;9.918;2023-11-18T18:44:52;6.60;99.90
25050;DHT22;13046;49.814;9.918;2023-11-18T18:47:20;6.60;99.90
25050;DHT22;13046;49.814;9.918;2023-11-18T18:49:45;6.60;99.90
25050;DHT22;13046;49.814;9.918;2023-11-18T18:52:11;6.60;99.90
25050;DHT22;13046;49.814;9.918;2023-11-18T18:54:37;6.60;99.90
25050;DHT22;13046;49.814;9.918;2023-11-18T18:57:03;6.60;99.90
25050;DHT22;13046;49.814;9.918;2023-11-18T18:59:33;6.60;99.90
25050;DHT22;13046;49.814;9.918;2023-11-18T19:01:59;6.50;99.90
25050;DHT22;13046;49.814;9.918;2023-11-18T19:04:24;6.60;99.90
25050;DHT22;13046;49.814;9.918;2023-11-18T19:06:50;6.60;99.90
25050;DHT22;13046;49.814;9.918;2023-11-18T19:09:16;6.60;99.90
25050;DHT22;13046;49.814;9.918;2023-11-18T19:11:44;6.60;99.90
25050;DHT22;13046;49.814;9.918;2023-11-18T19:14:10;6.60;99.90
25050;DHT22;13046;49.814;9.918;2023-11-18T19:16:36;6.60;99.90
25050;DHT22;13046;49.814;9.918;2023-11-18T19:19:04;6.60;99.90
25050;DHT22;13046;49.814;9.918;2023-11-18T19:21:29;6.60;99.90
25050;DHT22;13046;49.814;9.918;2023-11-18T19:23:56;6.60;99.90
25050;DHT22;13046;49.814;9.918;2023-11-18T19:26:22;6.60;99.90
25050;DHT22;13046;49.814;9.918;2023-11-18T19:28:49;6.50;99.90
25050;DHT22;13046;49.814;9.918;2023-11-18T19:31:14;6.60;99.90
25050;DHT22;13046;49.814;9.918;2023-11-18T19:33:41;6.60;99.90
25050;DHT22;13046;49.814;9.918;2023-11-18T19:36:11;6.50;99.90
25050;DHT22;13046;49.814;9.918;2023-11-18T19:38:37;6.60;99.90
25050;DHT22;13046;49.814;9.918;2023-11-18T19:41:04;6.60;99.90
25050;DHT22;13046;49.814;9.918;2023-11-18T19:43:31;6.50;99.90
25050;DHT22;13046;49.814;9.918;2023-11-18T19:45:57;6.60;99.90
25050;DHT22;13046;49.814;9.918;2023-11-18T19:48:23;6.50;99.90
25050;DHT22;13046;49.814;9.918;2023-11-18T19:50:50;6.50;99.90
25050;DHT22;13046;49.814;9.918;2023-11-18T19:53:21;6.40;99.90
25050;DHT22;13046;49.814;9.918;2023-11-18T19:55:47;6.50;99.90
25050;DHT22;13046;49.814;9.918;2023-11-18T19:58:13;6.40;99.90
25050;DHT22;13046;49.814;9.918;2023-11-18T20:00:38;6.40;99.90
25050;DHT22;13046;49.814;9.918;2023-11-18T20:03:04;6.40;99.90
25050;DHT22;13046;49.814;9.918;2023-11-18T20:05:30;6.40;99.90
25050;DHT22;13046;49.814;9.918;2023-11-18T20:07:57;6.40;99.90
25050;DHT22;13046;49.814;9.918;2023-11-18T20:10:23;6.40;99.90
25050;DHT22;13046;49.814;9.918;2023-11-18T20:12:50;6.40;99.90
25050;DHT22;13046;49.814;9.918;2023-11-18T20:15:15;6.40;99.90
25050;DHT22;13046;49.814;9.918;2023-11-18T20:17:41;6.40;99.90
25050;DHT22;13046;49.814;9.918;2023-11-18T20:20:10;6.40;99.90
25050;DHT22;13046;49.814;9.918;2023-11-18T20:22:36;6.40;99.90
25050;DHT22;13046;49.814;9.918;2023-11-18T20:25:04;6.30;99.90
25050;DHT22;13046;49.814;9.918;2023-11-18T20:27:35;6.30;99.90
25050;DHT22;13046;49.814;9.918;2023-11-18T20:30:04;6.30;99.90
25050;DHT22;13046;49.814;9.918;2023-11-18T20:32:34;6.30;99.90
25050;DHT22;13046;49.814;9.918;2023-11-18T20:35:02;6.30;99.90
25050;DHT22;13046;49.814;9.918;2023-11-18T20:37:27;6.30;99.90
25050;DHT22;13046;49.814;9.918;2023-11-18T20:39:53;6.30;99.90
25050;DHT22;13046;49.814;9.918;2023-11-18T20:42:19;6.20;99.90
25050;DHT22;13046;49.814;9.918;2023-11-18T20:44:47;6.30;99.90
25050;DHT22;13046;49.814;9.918;2023-11-18T20:47:13;6.30;99.90
25050;DHT22;13046;49.814;9.918;2023-11-18T20:49:39;6.30;99.90
25050;DHT22;13046;49.814;9.918;2023-11-18T20:52:05;6.30;99.90
25050;DHT22;13046;49.814;9.918;2023-11-18T20:54:31;6.30;99.90
25050;DHT22;13046;49.814;9.918;2023-11-18T20:56:57;6.30;99.90
25050;DHT22;13046;49.814;9.918;2023-11-18T20:59:24;6.30;99.90
25050;DHT22;13046;49.814;9.918;2023-11-18T21:01:49;6.30;99.90
25050;DHT22;13046;49.814;9.918;2023-11-18T21:04:16;6.30;99.90
25050;DHT22;13046;49.814;9.918;2023-11-18T21:06:41;6.30;99.90
25050;DHT22;13046;49.814;9.918;2023-11-18T21:09:07;6.30;99.90
25050;DHT22;13046;49.814;9.918;2023-11-18T21:11:33;6.30;99.90
25050;DHT22;13046;49.814;9.918;2023-11-18T21:13:59;6.30;99.90
25050;DHT22;13046;49.814;9.918;2023-11-18T21:16:24;6.30;99.90
25050;DHT22;13046;49.814;9.918;2023-11-18T21:18:50;6.30;99.90
25050;DHT22;13046;49.814;9.918;2023-11-18T21:21:16;6.30;99.90
25050;DHT22;13046;49.814;9.918;2023-11-18T21:23:42;6.30;99.90
25050;DHT22;13046;49.814;9.918;2023-11-18T21:26:07;6.30;99.90
25050;DHT22;13046;49.814;9.918;2023-11-18T21:28:33;6.30;99.90
25050;DHT22;13046;49.814;9.918;2023-11-18T21:30:58;6.30;99.90
25050;DHT22;13046;49.814;9.918;2023-11-18T21:33:24;6.30;99.90
25050;DHT22;13046;49.814;9.918;2023-11-18T21:35:50;6.30;99.90
25050;DHT22;13046;49.814;9.918;2023-11-18T21:38:19;6.30;99.90
25050;DHT22;13046;49.814;9.918;2023-11-18T21:40:44;6.40;99.90
25050;DHT22;13046;49.814;9.918;2023-11-18T21:43:12;6.40;99.90
25050;DHT22;13046;49.814;9.918;2023-11-18T21:45:37;6.40;99.90
25050;DHT22;13046;49.814;9.918;2023-11-18T21:48:04;6.40;99.90
25050;DHT22;13046;49.814;9.918;2023-11-18T21:50:30;6.40;99.90
25050;DHT22;13046;49.814;9.918;2023-11-18T21:52:56;6.40;99.90
25050;DHT22;13046;49.814;9.918;2023-11-18T21:55:21;6.40;99.90
25050;DHT22;13046;49.814;9.918;2023-11-18T21:57:47;6.40;99.90
25050;DHT22;13046;49.814;9.918;2023-11-18T22:00:14;6.40;99.90
25050;DHT22;13046;49.814;9.918;2023-11-18T22:02:44;6.40;99.90
25050;DHT22;13046;49.814;9.918;2023-11-18T22:05:10;6.40;99.90
25050;DHT22;13046;49.814;9.918;2023-11-18T22:07:36;6.40;99.90
25050;DHT22;13046;49.814;9.918;2023-11-18T22:10:06;6.40;99.90
25050;DHT22;13046;49.814;9.918;2023-11-18T22:12:32;6.40;99.90
25050;DHT22;13046;49.814;9.918;2023-11-18T22:14:58;6.50;99.90
25050;DHT22;13046;49.814;9.918;2023-11-18T22:17:24;6.50;99.90
25050;DHT22;13046;49.814;9.918;2023-11-18T22:19:53;6.50;99.90
25050;DHT22;13046;49.814;9.918;2023-11-18T22:22:19;6.40;99.90
25050;DHT22;13046;49.814;9.918;2023-11-18T22:24:45;6.50;99.90
25050;DHT22;13046;49.814;9.918;2023-11-18T22:27:11;6.50;99.90
25050;DHT22;13046;49.814;9.918;2023-11-18T22:29:45;6.50;99.90
25050;DHT22;13046;49.814;9.918;2023-11-18T22:32:15;6.50;99.90
25050;DHT22;13046;49.814;9.918;2023-11-18T22:34:42;6.50;99.90
25050;DHT22;13046;49.814;9.918;2023-11-18T22:37:08;6.50;99.90
25050;DHT22;13046;49.814;9.918;2023-11-18T22:39:34;6.50;99.90
25050;DHT22;13046;49.814;9.918;2023-11-18T22:42:03;6.50;99.90
25050;DHT22;13046;49.814;9.918;2023-11-18T22:44:33;6.50;99.90
25050;DHT22;13046;49.814;9.918;2023-11-18T22:46:58;6.50;99.90
25050;DHT22;13046;49.814;9.918;2023-11-18T22:49:27;6.50;99.90
25050;DHT22;13046;49.814;9.918;2023-11-18T22:51:53;6.50;99.90
25050;DHT22;13046;49.814;9.918;2023-11-18T22:54:21;6.50;99.90
25050;DHT22;13046;49.814;9.918;2023-11-18T22:56:46;6.50;99.90
25050;DHT22;13046;49.814;9.918;2023-11-18T22:59:13;6.50;99.90
25050;DHT22;13046;49.814;9.918;2023-11-18T23:01:38;6.50;99.90
25050;DHT22;13046;49.814;9.918;2023-11-18T23:04:05;6.60;99.90
25050;DHT22;13046;49.814;9.918;2023-11-18T23:06:40;6.60;99.90
25050;DHT22;13046;49.814;9.918;2023-11-18T23:09:08;6.50;99.90
25050;DHT22;13046;49.814;9.918;2023-11-18T23:11:38;6.60;99.90
25050;DHT22;13046;49.814;9.918;2023-11-18T23:14:08;6.60;99.90
25050;DHT22;13046;49.814;9.918;2023-11-18T23:16:34;6.50;99.90
25050;DHT22;13046;49.814;9.918;2023-11-18T23:19:00;6.60;99.90
25050;DHT22;13046;49.814;9.918;2023-11-18T23:21:27;6.60;99.90
25050;DHT22;13046;49.814;9.918;2023-11-18T23:23:55;6.60;99.90
25050;DHT22;13046;49.814;9.918;2023-11-18T23:26:21;6.60;99.90
25050;DHT22;13046;49.814;9.918;2023-11-18T23:28:47;6.60;99.90
25050;DHT22;13046;49.814;9.918;2023-11-18T23:31:13;6.60;99.90
25050;DHT22;13046;49.814;9.918;2023-11-18T23:33:38;6.60;99.90
25050;DHT22;13046;49.814;9.918;2023-11-18T23:36:05;6.60;99.90
25050;DHT22;13046;49.814;9.918;2023-11-18T23:38:33;6.60;99.90
25050;DHT22;13046;49.814;9.918;2023-11-18T23:41:00;6.60;99.90
25050;DHT22;13046;49.814;9.918;2023-11-18T23:43:26;6.60;99.90
25050;DHT22;13046;49.814;9.918;2023-11-18T23:45:54;6.60;99.90
25050;DHT22;13046;49.814;9.918;2023-11-18T23:48:21;6.60;99.90
25050;DHT22;13046;49.814;9.918;2023-11-18T23:50:47;6.60;99.90
25050;DHT22;13046;49.814;9.918;2023-11-18T23:53:13;6.60;99.90
25050;DHT22;13046;49.814;9.918;2023-11-18T23:55:39;6.60;99.90
25050;DHT22;13046;49.814;9.918;2023-11-18T23:58:04;6.60;99.90
